sensor_id;sensor_type;location;lat;lon;timestamp;P1;durP1;ratioP1;P2;durP2;ratioP2
75916;SDS011;64595;50.148;14.334;2024-01-25T00:01:47;14.80;;;5.32;;
75916;SDS011;64595;50.148;14.334;2024-01-25T00:04:13;23.92;;;7.40;;
75916;SDS011;64595;50.148;14.334;2024-01-25T00:06:38;21.77;;;6.72;;
75916;SDS011;64595;50.148;14.334;2024-01-25T00:09:05;8.35;;;3.45;;
75916;SDS011;64595;50.148;14.334;2024-01-25T00:11:30;23.05;;;6.15;;
75916;SDS011;64595;50.148;14.334;2024-01-25T00:13:56;28.83;;;9.77;;
75916;SDS011;64595;50.148;14.334;2024-01-25T00:16:21;21.98;;;7.32;;
75916;SDS011;64595;50.148;14.334;2024-01-25T00:18:47;9.90;;;3.95;;
75916;SDS011;64595;50.148;14.334;2024-01-25T00:21:12;17.55;;;5.25;;
75916;SDS011;64595;50.148;14.334;2024-01-25T00:23:38;11.43;;;3.13;;
75916;SDS011;64595;50.148;14.334;2024-01-25T00:26:04;7.07;;;2.60;;
75916;SDS011;64595;50.148;14.334;2024-01-25T00:28:30;13.60;;;4.53;;
75916;SDS011;64595;50.148;14.334;2024-01-25T00:30:55;24.58;;;8.68;;
75916;SDS011;64595;50.148;14.334;2024-01-25T00:33:21;10.85;;;4.25;;
75916;SDS011;64595;50.148;14.334;2024-01-25T00:35:46;11.00;;;4.40;;
75916;SDS011;64595;50.148;14.334;2024-01-25T00:38:12;9.30;;;3.05;;
75916;SDS011;64595;50.148;14.334;2024-01-25T00:40:39;8.32;;;2.97;;
75916;SDS011;64595;50.148;14.334;2024-01-25T00:43:07;10.68;;;2.90;;
75916;SDS011;64595;50.148;14.334;2024-01-25T00:47:58;6.72;;;2.22;;
75916;SDS011;64595;50.148;14.334;2024-01-25T00:50:24;12.90;;;2.75;;
75916;SDS011;64595;50.148;14.334;2024-01-25T00:52:50;9.43;;;2.75;;
75916;SDS011;64595;50.148;14.334;2024-01-25T00:55:16;7.53;;;3.08;;
75916;SDS011;64595;50.148;14.334;2024-01-25T00:57:42;9.23;;;2.92;;
75916;SDS011;64595;50.148;14.334;2024-01-25T01:00:10;12.88;;;3.72;;
75916;SDS011;64595;50.148;14.334;2024-01-25T01:02:39;15.88;;;2.90;;
75916;SDS011;64595;50.148;14.334;2024-01-25T01:05:05;10.88;;;3.08;;
75916;SDS011;64595;50.148;14.334;2024-01-25T01:07:32;15.10;;;3.85;;
75916;SDS011;64595;50.148;14.334;2024-01-25T01:09:58;11.48;;;2.92;;
75916;SDS011;64595;50.148;14.334;2024-01-25T01:12:23;18.90;;;5.18;;
75916;SDS011;64595;50.148;14.334;2024-01-25T01:14:49;12.85;;;3.45;;
75916;SDS011;64595;50.148;14.334;2024-01-25T01:17:15;11.20;;;3.25;;
75916;SDS011;64595;50.148;14.334;2024-01-25T01:19:41;15.55;;;6.88;;
75916;SDS011;64595;50.148;14.334;2024-01-25T01:22:06;9.10;;;2.63;;
75916;SDS011;64595;50.148;14.334;2024-01-25T01:24:32;10.93;;;3.05;;
75916;SDS011;64595;50.148;14.334;2024-01-25T01:26:57;7.55;;;2.72;;
75916;SDS011;64595;50.148;14.334;2024-01-25T01:29:23;11.70;;;3.30;;
75916;SDS011;64595;50.148;14.334;2024-01-25T01:31:48;10.02;;;3.30;;
75916;SDS011;64595;50.148;14.334;2024-01-25T01:34:15;10.35;;;3.50;;
75916;SDS011;64595;50.148;14.334;2024-01-25T01:36:41;11.48;;;3.65;;
75916;SDS011;64595;50.148;14.334;2024-01-25T01:39:06;10.57;;;2.95;;
75916;SDS011;64595;50.148;14.334;2024-01-25T01:41:32;7.43;;;2.78;;
75916;SDS011;64595;50.148;14.334;2024-01-25T01:43:57;8.88;;;3.10;;
75916;SDS011;64595;50.148;14.334;2024-01-25T01:46:26;12.77;;;3.10;;
75916;SDS011;64595;50.148;14.334;2024-01-25T01:48:55;7.72;;;2.53;;
75916;SDS011;64595;50.148;14.334;2024-01-25T01:51:22;9.75;;;2.92;;
75916;SDS011;64595;50.148;14.334;2024-01-25T01:53:48;6.97;;;2.88;;
75916;SDS011;64595;50.148;14.334;2024-01-25T01:56:13;7.80;;;2.55;;
75916;SDS011;64595;50.148;14.334;2024-01-25T01:58:39;8.30;;;2.70;;
75916;SDS011;64595;50.148;14.334;2024-01-25T02:01:05;7.20;;;2.65;;
75916;SDS011;64595;50.148;14.334;2024-01-25T02:03:31;10.10;;;2.80;;
75916;SDS011;64595;50.148;14.334;2024-01-25T02:05:56;9.10;;;3.10;;
75916;SDS011;64595;50.148;14.334;2024-01-25T02:08:23;11.30;;;2.67;;
75916;SDS011;64595;50.148;14.334;2024-01-25T02:10:48;14.13;;;3.03;;
75916;SDS011;64595;50.148;14.334;2024-01-25T02:13:14;16.63;;;3.05;;
75916;SDS011;64595;50.148;14.334;2024-01-25T02:15:39;10.50;;;2.83;;
75916;SDS011;64595;50.148;14.334;2024-01-25T02:18:05;12.27;;;3.10;;
75916;SDS011;64595;50.148;14.334;2024-01-25T02:20:30;8.23;;;2.95;;
75916;SDS011;64595;50.148;14.334;2024-01-25T02:22:57;9.75;;;2.40;;
75916;SDS011;64595;50.148;14.334;2024-01-25T02:25:23;11.20;;;2.70;;
75916;SDS011;64595;50.148;14.334;2024-01-25T02:27:48;9.50;;;2.47;;
75916;SDS011;64595;50.148;14.334;2024-01-25T02:30:14;9.70;;;2.92;;
75916;SDS011;64595;50.148;14.334;2024-01-25T02:32:48;11.93;;;3.38;;
75916;SDS011;64595;50.148;14.334;2024-01-25T02:35:13;8.32;;;2.80;;
75916;SDS011;64595;50.148;14.334;2024-01-25T02:37:39;10.15;;;2.78;;
75916;SDS011;64595;50.148;14.334;2024-01-25T02:40:06;11.20;;;3.25;;
75916;SDS011;64595;50.148;14.334;2024-01-25T02:42:32;8.45;;;2.55;;
75916;SDS011;64595;50.148;14.334;2024-01-25T02:44:58;12.57;;;3.05;;
75916;SDS011;64595;50.148;14.334;2024-01-25T02:47:23;6.63;;;2.17;;
75916;SDS011;64595;50.148;14.334;2024-01-25T02:49:49;9.55;;;2.20;;
75916;SDS011;64595;50.148;14.334;2024-01-25T02:52:14;8.65;;;2.42;;
75916;SDS011;64595;50.148;14.334;2024-01-25T02:54:40;11.00;;;2.22;;
75916;SDS011;64595;50.148;14.334;2024-01-25T02:57:06;8.50;;;2.05;;
75916;SDS011;64595;50.148;14.334;2024-01-25T02:59:32;7.55;;;2.13;;
75916;SDS011;64595;50.148;14.334;2024-01-25T03:01:57;9.77;;;2.22;;
75916;SDS011;64595;50.148;14.334;2024-01-25T03:04:23;7.28;;;2.88;;
75916;SDS011;64595;50.148;14.334;2024-01-25T03:06:48;10.27;;;2.75;;
75916;SDS011;64595;50.148;14.334;2024-01-25T03:09:14;8.27;;;2.13;;
75916;SDS011;64595;50.148;14.334;2024-01-25T03:11:39;5.13;;;1.70;;
75916;SDS011;64595;50.148;14.334;2024-01-25T03:14:06;8.50;;;2.13;;
75916;SDS011;64595;50.148;14.334;2024-01-25T03:16:32;10.95;;;2.35;;
75916;SDS011;64595;50.148;14.334;2024-01-25T03:18:57;9.43;;;2.42;;
75916;SDS011;64595;50.148;14.334;2024-01-25T03:21:22;10.45;;;2.80;;
75916;SDS011;64595;50.148;14.334;2024-01-25T03:23:48;13.77;;;3.03;;
75916;SDS011;64595;50.148;14.334;2024-01-25T03:26:14;7.22;;;2.75;;
75916;SDS011;64595;50.148;14.334;2024-01-25T03:28:39;11.60;;;2.88;;
75916;SDS011;64595;50.148;14.334;2024-01-25T03:31:06;7.60;;;2.65;;
75916;SDS011;64595;50.148;14.334;2024-01-25T03:33:32;8.88;;;2.30;;
75916;SDS011;64595;50.148;14.334;2024-01-25T03:35:57;12.43;;;2.92;;
75916;SDS011;64595;50.148;14.334;2024-01-25T03:38:26;6.82;;;2.30;;
75916;SDS011;64595;50.148;14.334;2024-01-25T03:40:51;10.38;;;2.63;;
75916;SDS011;64595;50.148;14.334;2024-01-25T03:43:16;9.63;;;2.55;;
75916;SDS011;64595;50.148;14.334;2024-01-25T03:45:42;14.50;;;3.22;;
75916;SDS011;64595;50.148;14.334;2024-01-25T03:48:09;11.00;;;2.72;;
75916;SDS011;64595;50.148;14.334;2024-01-25T03:50:34;8.38;;;2.70;;
75916;SDS011;64595;50.148;14.334;2024-01-25T03:53:00;7.25;;;2.80;;
75916;SDS011;64595;50.148;14.334;2024-01-25T03:55:25;13.15;;;3.03;;
75916;SDS011;64595;50.148;14.334;2024-01-25T03:57:51;8.18;;;2.60;;
75916;SDS011;64595;50.148;14.334;2024-01-25T04:00:16;6.63;;;2.92;;
75916;SDS011;64595;50.148;14.334;2024-01-25T04:02:42;7.80;;;3.00;;
75916;SDS011;64595;50.148;14.334;2024-01-25T04:05:09;8.43;;;3.00;;
75916;SDS011;64595;50.148;14.334;2024-01-25T04:07:35;8.70;;;2.83;;
75916;SDS011;64595;50.148;14.334;2024-01-25T04:10:00;9.68;;;3.03;;
75916;SDS011;64595;50.148;14.334;2024-01-25T04:12:26;9.90;;;2.50;;
75916;SDS011;64595;50.148;14.334;2024-01-25T04:14:51;9.93;;;3.10;;
75916;SDS011;64595;50.148;14.334;2024-01-25T04:17:17;8.93;;;3.05;;
75916;SDS011;64595;50.148;14.334;2024-01-25T04:19:42;9.57;;;2.83;;
75916;SDS011;64595;50.148;14.334;2024-01-25T04:22:09;13.85;;;3.20;;
75916;SDS011;64595;50.148;14.334;2024-01-25T04:24:34;10.98;;;2.47;;
75916;SDS011;64595;50.148;14.334;2024-01-25T04:27:00;11.52;;;3.45;;
75916;SDS011;64595;50.148;14.334;2024-01-25T04:29:25;8.52;;;2.65;;
75916;SDS011;64595;50.148;14.334;2024-01-25T04:31:51;10.88;;;2.85;;
75916;SDS011;64595;50.148;14.334;2024-01-25T04:34:16;11.32;;;3.22;;
75916;SDS011;64595;50.148;14.334;2024-01-25T04:36:42;10.68;;;2.42;;
75916;SDS011;64595;50.148;14.334;2024-01-25T04:39:09;16.75;;;5.10;;
75916;SDS011;64595;50.148;14.334;2024-01-25T04:41:35;8.55;;;2.35;;
75916;SDS011;64595;50.148;14.334;2024-01-25T04:44:01;11.02;;;2.22;;
75916;SDS011;64595;50.148;14.334;2024-01-25T04:46:26;11.43;;;2.65;;
75916;SDS011;64595;50.148;14.334;2024-01-25T04:48:52;12.18;;;2.55;;
75916;SDS011;64595;50.148;14.334;2024-01-25T04:51:17;10.77;;;2.80;;
75916;SDS011;64595;50.148;14.334;2024-01-25T04:53:43;10.23;;;2.95;;
75916;SDS011;64595;50.148;14.334;2024-01-25T04:56:10;9.00;;;3.00;;
75916;SDS011;64595;50.148;14.334;2024-01-25T04:58:35;9.43;;;3.28;;
75916;SDS011;64595;50.148;14.334;2024-01-25T05:01:01;8.93;;;2.30;;
75916;SDS011;64595;50.148;14.334;2024-01-25T05:03:26;11.40;;;2.90;;
75916;SDS011;64595;50.148;14.334;2024-01-25T05:05:52;16.05;;;3.42;;
75916;SDS011;64595;50.148;14.334;2024-01-25T05:08:17;11.10;;;3.30;;
75916;SDS011;64595;50.148;14.334;2024-01-25T05:10:43;11.07;;;4.07;;
75916;SDS011;64595;50.148;14.334;2024-01-25T05:13:09;11.50;;;3.15;;
75916;SDS011;64595;50.148;14.334;2024-01-25T05:15:35;10.35;;;3.80;;
75916;SDS011;64595;50.148;14.334;2024-01-25T05:18:00;10.07;;;3.17;;
75916;SDS011;64595;50.148;14.334;2024-01-25T05:20:26;10.30;;;3.97;;
75916;SDS011;64595;50.148;14.334;2024-01-25T05:22:51;13.02;;;3.00;;
75916;SDS011;64595;50.148;14.334;2024-01-25T05:25:17;12.93;;;3.47;;
75916;SDS011;64595;50.148;14.334;2024-01-25T05:27:42;13.20;;;4.15;;
75916;SDS011;64595;50.148;14.334;2024-01-25T05:30:10;12.70;;;3.22;;
75916;SDS011;64595;50.148;14.334;2024-01-25T05:35:01;12.00;;;3.47;;
75916;SDS011;64595;50.148;14.334;2024-01-25T05:37:26;9.73;;;3.35;;
75916;SDS011;64595;50.148;14.334;2024-01-25T05:39:52;8.05;;;2.63;;
75916;SDS011;64595;50.148;14.334;2024-01-25T05:42:17;11.70;;;3.20;;
75916;SDS011;64595;50.148;14.334;2024-01-25T05:44:43;10.77;;;3.38;;
75916;SDS011;64595;50.148;14.334;2024-01-25T05:47:10;14.13;;;3.08;;
75916;SDS011;64595;50.148;14.334;2024-01-25T05:49:35;11.00;;;3.35;;
75916;SDS011;64595;50.148;14.334;2024-01-25T05:52:00;11.13;;;2.85;;
75916;SDS011;64595;50.148;14.334;2024-01-25T05:54:26;12.57;;;3.65;;
75916;SDS011;64595;50.148;14.334;2024-01-25T05:56:51;11.73;;;2.55;;
75916;SDS011;64595;50.148;14.334;2024-01-25T05:59:17;11.90;;;3.22;;
75916;SDS011;64595;50.148;14.334;2024-01-25T06:01:42;11.65;;;3.70;;
75916;SDS011;64595;50.148;14.334;2024-01-25T06:04:09;17.48;;;4.38;;
75916;SDS011;64595;50.148;14.334;2024-01-25T06:06:35;10.70;;;3.17;;
75916;SDS011;64595;50.148;14.334;2024-01-25T06:09:00;10.57;;;3.05;;
75916;SDS011;64595;50.148;14.334;2024-01-25T06:11:26;7.80;;;2.90;;
75916;SDS011;64595;50.148;14.334;2024-01-25T06:13:51;11.70;;;2.78;;
75916;SDS011;64595;50.148;14.334;2024-01-25T06:16:17;13.85;;;3.53;;
75916;SDS011;64595;50.148;14.334;2024-01-25T06:18:42;23.58;;;6.63;;
75916;SDS011;64595;50.148;14.334;2024-01-25T06:21:09;15.13;;;3.58;;
75916;SDS011;64595;50.148;14.334;2024-01-25T06:23:35;13.32;;;4.13;;
75916;SDS011;64595;50.148;14.334;2024-01-25T06:26:00;13.23;;;3.45;;
75916;SDS011;64595;50.148;14.334;2024-01-25T06:28:26;19.48;;;5.38;;
75916;SDS011;64595;50.148;14.334;2024-01-25T06:30:51;12.18;;;3.22;;
75916;SDS011;64595;50.148;14.334;2024-01-25T06:33:16;8.85;;;2.72;;
75916;SDS011;64595;50.148;14.334;2024-01-25T06:35:42;7.57;;;2.72;;
75916;SDS011;64595;50.148;14.334;2024-01-25T06:38:09;9.68;;;2.75;;
75916;SDS011;64595;50.148;14.334;2024-01-25T06:40:34;15.40;;;3.28;;
75916;SDS011;64595;50.148;14.334;2024-01-25T06:43:00;12.43;;;4.63;;
75916;SDS011;64595;50.148;14.334;2024-01-25T06:45:25;10.15;;;2.90;;
75916;SDS011;64595;50.148;14.334;2024-01-25T06:47:51;11.50;;;3.05;;
75916;SDS011;64595;50.148;14.334;2024-01-25T06:50:16;8.15;;;3.15;;
75916;SDS011;64595;50.148;14.334;2024-01-25T06:52:42;12.30;;;3.33;;
75916;SDS011;64595;50.148;14.334;2024-01-25T06:55:09;19.33;;;5.25;;
75916;SDS011;64595;50.148;14.334;2024-01-25T06:57:34;7.18;;;2.72;;
75916;SDS011;64595;50.148;14.334;2024-01-25T07:00:00;22.85;;;3.85;;
75916;SDS011;64595;50.148;14.334;2024-01-25T07:02:25;9.15;;;2.53;;
75916;SDS011;64595;50.148;14.334;2024-01-25T07:04:51;12.88;;;2.85;;
75916;SDS011;64595;50.148;14.334;2024-01-25T07:07:16;21.13;;;4.95;;
75916;SDS011;64595;50.148;14.334;2024-01-25T07:09:42;35.33;;;13.27;;
75916;SDS011;64595;50.148;14.334;2024-01-25T07:12:08;22.55;;;7.93;;
75916;SDS011;64595;50.148;14.334;2024-01-25T07:14:34;27.58;;;8.15;;
75916;SDS011;64595;50.148;14.334;2024-01-25T07:16:59;19.20;;;6.30;;
75916;SDS011;64595;50.148;14.334;2024-01-25T07:19:25;32.50;;;10.07;;
75916;SDS011;64595;50.148;14.334;2024-01-25T07:21:50;27.83;;;13.10;;
75916;SDS011;64595;50.148;14.334;2024-01-25T07:24:16;18.58;;;6.35;;
75916;SDS011;64595;50.148;14.334;2024-01-25T07:26:41;30.80;;;11.20;;
75916;SDS011;64595;50.148;14.334;2024-01-25T07:29:08;24.17;;;8.52;;
75916;SDS011;64595;50.148;14.334;2024-01-25T07:31:33;25.08;;;8.23;;
75916;SDS011;64595;50.148;14.334;2024-01-25T07:33:59;14.52;;;3.90;;
75916;SDS011;64595;50.148;14.334;2024-01-25T07:36:24;10.25;;;4.10;;
75916;SDS011;64595;50.148;14.334;2024-01-25T07:38:49;17.85;;;3.40;;
75916;SDS011;64595;50.148;14.334;2024-01-25T07:41:15;15.75;;;5.20;;
75916;SDS011;64595;50.148;14.334;2024-01-25T07:43:41;21.38;;;7.40;;
75916;SDS011;64595;50.148;14.334;2024-01-25T07:46:08;37.45;;;12.15;;
75916;SDS011;64595;50.148;14.334;2024-01-25T07:48:34;15.45;;;4.63;;
75916;SDS011;64595;50.148;14.334;2024-01-25T07:50:59;16.15;;;4.28;;
75916;SDS011;64595;50.148;14.334;2024-01-25T07:53:25;14.32;;;5.53;;
75916;SDS011;64595;50.148;14.334;2024-01-25T07:55:51;10.00;;;3.22;;
75916;SDS011;64595;50.148;14.334;2024-01-25T07:58:16;13.57;;;3.17;;
75916;SDS011;64595;50.148;14.334;2024-01-25T08:00:42;12.07;;;2.30;;
75916;SDS011;64595;50.148;14.334;2024-01-25T08:03:09;12.63;;;4.03;;
75916;SDS011;64595;50.148;14.334;2024-01-25T08:05:34;9.60;;;3.58;;
75916;SDS011;64595;50.148;14.334;2024-01-25T08:07:59;11.27;;;3.45;;
75916;SDS011;64595;50.148;14.334;2024-01-25T08:10:25;11.30;;;3.30;;
75916;SDS011;64595;50.148;14.334;2024-01-25T08:12:50;13.50;;;3.50;;
75916;SDS011;64595;50.148;14.334;2024-01-25T08:15:16;15.25;;;3.80;;
75916;SDS011;64595;50.148;14.334;2024-01-25T08:17:41;11.13;;;2.88;;
75916;SDS011;64595;50.148;14.334;2024-01-25T08:20:09;7.22;;;2.92;;
75916;SDS011;64595;50.148;14.334;2024-01-25T08:22:36;8.18;;;2.85;;
75916;SDS011;64595;50.148;14.334;2024-01-25T08:25:01;8.10;;;3.20;;
75916;SDS011;64595;50.148;14.334;2024-01-25T08:27:27;8.50;;;2.70;;
75916;SDS011;64595;50.148;14.334;2024-01-25T08:29:52;7.70;;;2.70;;
75916;SDS011;64595;50.148;14.334;2024-01-25T08:32:18;8.65;;;2.67;;
75916;SDS011;64595;50.148;14.334;2024-01-25T08:34:43;25.90;;;3.08;;
75916;SDS011;64595;50.148;14.334;2024-01-25T08:37:10;8.32;;;2.42;;
75916;SDS011;64595;50.148;14.334;2024-01-25T08:39:35;10.45;;;2.63;;
75916;SDS011;64595;50.148;14.334;2024-01-25T08:42:01;8.73;;;2.60;;
75916;SDS011;64595;50.148;14.334;2024-01-25T08:44:26;9.80;;;2.72;;
75916;SDS011;64595;50.148;14.334;2024-01-25T08:46:52;10.35;;;3.72;;
75916;SDS011;64595;50.148;14.334;2024-01-25T08:49:17;8.55;;;2.58;;
75916;SDS011;64595;50.148;14.334;2024-01-25T08:51:43;7.50;;;2.55;;
75916;SDS011;64595;50.148;14.334;2024-01-25T08:54:09;8.85;;;3.50;;
75916;SDS011;64595;50.148;14.334;2024-01-25T08:56:35;7.78;;;2.78;;
75916;SDS011;64595;50.148;14.334;2024-01-25T08:59:00;10.25;;;3.03;;
75916;SDS011;64595;50.148;14.334;2024-01-25T09:01:26;8.35;;;3.00;;
75916;SDS011;64595;50.148;14.334;2024-01-25T09:03:51;10.20;;;3.25;;
75916;SDS011;64595;50.148;14.334;2024-01-25T09:06:17;11.90;;;3.17;;
75916;SDS011;64595;50.148;14.334;2024-01-25T09:08:42;6.60;;;2.85;;
75916;SDS011;64595;50.148;14.334;2024-01-25T09:11:09;7.25;;;2.60;;
75916;SDS011;64595;50.148;14.334;2024-01-25T09:13:35;8.73;;;2.20;;
75916;SDS011;64595;50.148;14.334;2024-01-25T09:16:00;8.05;;;2.75;;
75916;SDS011;64595;50.148;14.334;2024-01-25T09:18:25;7.97;;;2.22;;
75916;SDS011;64595;50.148;14.334;2024-01-25T09:20:51;7.95;;;1.92;;
75916;SDS011;64595;50.148;14.334;2024-01-25T09:23:16;4.63;;;2.10;;
75916;SDS011;64595;50.148;14.334;2024-01-25T09:25:42;7.05;;;2.08;;
75916;SDS011;64595;50.148;14.334;2024-01-25T09:28:09;6.50;;;2.20;;
75916;SDS011;64595;50.148;14.334;2024-01-25T09:30:34;5.47;;;1.90;;
75916;SDS011;64595;50.148;14.334;2024-01-25T09:33:00;4.63;;;2.13;;
75916;SDS011;64595;50.148;14.334;2024-01-25T09:35:25;9.70;;;1.95;;
75916;SDS011;64595;50.148;14.334;2024-01-25T09:37:51;7.05;;;2.88;;
75916;SDS011;64595;50.148;14.334;2024-01-25T09:40:16;7.63;;;2.78;;
75916;SDS011;64595;50.148;14.334;2024-01-25T09:42:42;9.77;;;2.08;;
75916;SDS011;64595;50.148;14.334;2024-01-25T09:45:09;13.38;;;2.40;;
75916;SDS011;64595;50.148;14.334;2024-01-25T09:47:36;9.65;;;2.80;;
75916;SDS011;64595;50.148;14.334;2024-01-25T09:50:01;7.55;;;2.03;;
75916;SDS011;64595;50.148;14.334;2024-01-25T09:52:27;8.55;;;2.35;;
75916;SDS011;64595;50.148;14.334;2024-01-25T09:54:53;6.75;;;1.90;;
75916;SDS011;64595;50.148;14.334;2024-01-25T09:57:19;15.63;;;2.72;;
75916;SDS011;64595;50.148;14.334;2024-01-25T09:59:49;8.23;;;2.15;;
75916;SDS011;64595;50.148;14.334;2024-01-25T10:02:16;8.70;;;2.63;;
75916;SDS011;64595;50.148;14.334;2024-01-25T10:04:41;5.82;;;2.40;;
75916;SDS011;64595;50.148;14.334;2024-01-25T10:07:06;6.88;;;2.42;;
75916;SDS011;64595;50.148;14.334;2024-01-25T10:09:37;14.90;;;5.40;;
75916;SDS011;64595;50.148;14.334;2024-01-25T10:12:03;10.02;;;3.67;;
75916;SDS011;64595;50.148;14.334;2024-01-25T10:14:29;7.75;;;2.65;;
75916;SDS011;64595;50.148;14.334;2024-01-25T10:16:55;6.75;;;2.88;;
75916;SDS011;64595;50.148;14.334;2024-01-25T10:19:21;7.45;;;2.13;;
75916;SDS011;64595;50.148;14.334;2024-01-25T10:21:47;7.75;;;2.35;;
75916;SDS011;64595;50.148;14.334;2024-01-25T10:24:12;8.77;;;2.85;;
75916;SDS011;64595;50.148;14.334;2024-01-25T10:26:38;5.72;;;2.17;;
75916;SDS011;64595;50.148;14.334;2024-01-25T10:29:03;5.30;;;2.25;;
75916;SDS011;64595;50.148;14.334;2024-01-25T10:31:29;4.50;;;1.75;;
75916;SDS011;64595;50.148;14.334;2024-01-25T10:33:55;7.88;;;2.30;;
75916;SDS011;64595;50.148;14.334;2024-01-25T10:36:23;5.20;;;2.47;;
75916;SDS011;64595;50.148;14.334;2024-01-25T10:38:49;8.73;;;2.10;;
75916;SDS011;64595;50.148;14.334;2024-01-25T10:41:14;5.72;;;2.00;;
75916;SDS011;64595;50.148;14.334;2024-01-25T10:43:40;11.80;;;2.30;;
75916;SDS011;64595;50.148;14.334;2024-01-25T10:46:06;6.05;;;1.70;;
75916;SDS011;64595;50.148;14.334;2024-01-25T10:48:32;10.10;;;2.30;;
75916;SDS011;64595;50.148;14.334;2024-01-25T10:50:58;11.07;;;2.20;;
75916;SDS011;64595;50.148;14.334;2024-01-25T10:53:25;14.88;;;3.08;;
75916;SDS011;64595;50.148;14.334;2024-01-25T10:55:52;8.20;;;2.55;;
75916;SDS011;64595;50.148;14.334;2024-01-25T10:58:17;9.60;;;2.03;;
75916;SDS011;64595;50.148;14.334;2024-01-25T11:00:49;8.77;;;1.95;;
75916;SDS011;64595;50.148;14.334;2024-01-25T11:03:15;17.00;;;3.15;;
75916;SDS011;64595;50.148;14.334;2024-01-25T11:05:43;4.60;;;1.90;;
75916;SDS011;64595;50.148;14.334;2024-01-25T11:08:16;10.20;;;2.15;;
75916;SDS011;64595;50.148;14.334;2024-01-25T11:10:46;9.18;;;2.28;;
75916;SDS011;64595;50.148;14.334;2024-01-25T11:13:13;7.22;;;2.38;;
75916;SDS011;64595;50.148;14.334;2024-01-25T11:15:39;3.70;;;2.10;;
75916;SDS011;64595;50.148;14.334;2024-01-25T11:18:07;7.05;;;2.35;;
75916;SDS011;64595;50.148;14.334;2024-01-25T11:20:33;10.13;;;2.47;;
75916;SDS011;64595;50.148;14.334;2024-01-25T11:23:01;6.47;;;2.10;;
75916;SDS011;64595;50.148;14.334;2024-01-25T11:25:27;7.50;;;2.10;;
75916;SDS011;64595;50.148;14.334;2024-01-25T11:27:54;12.20;;;2.28;;
75916;SDS011;64595;50.148;14.334;2024-01-25T11:30:20;7.53;;;1.90;;
75916;SDS011;64595;50.148;14.334;2024-01-25T11:32:46;10.93;;;2.35;;
75916;SDS011;64595;50.148;14.334;2024-01-25T11:35:11;7.13;;;2.45;;
75916;SDS011;64595;50.148;14.334;2024-01-25T11:37:37;20.90;;;2.60;;
75916;SDS011;64595;50.148;14.334;2024-01-25T11:40:02;5.30;;;2.00;;
75916;SDS011;64595;50.148;14.334;2024-01-25T11:42:28;7.25;;;2.20;;
75916;SDS011;64595;50.148;14.334;2024-01-25T11:44:55;6.50;;;2.90;;
75916;SDS011;64595;50.148;14.334;2024-01-25T11:47:21;10.15;;;3.00;;
75916;SDS011;64595;50.148;14.334;2024-01-25T11:49:46;8.20;;;2.70;;
75916;SDS011;64595;50.148;14.334;2024-01-25T11:52:12;9.48;;;2.20;;
75916;SDS011;64595;50.148;14.334;2024-01-25T11:54:37;4.70;;;2.00;;
75916;SDS011;64595;50.148;14.334;2024-01-25T11:57:03;7.38;;;2.50;;
75916;SDS011;64595;50.148;14.334;2024-01-25T11:59:29;5.35;;;2.13;;
75916;SDS011;64595;50.148;14.334;2024-01-25T12:01:56;11.32;;;2.70;;
75916;SDS011;64595;50.148;14.334;2024-01-25T12:04:21;11.52;;;2.83;;
75916;SDS011;64595;50.148;14.334;2024-01-25T12:06:47;9.57;;;2.08;;
75916;SDS011;64595;50.148;14.334;2024-01-25T12:09:12;9.82;;;3.33;;
75916;SDS011;64595;50.148;14.334;2024-01-25T12:11:41;6.28;;;2.35;;
75916;SDS011;64595;50.148;14.334;2024-01-25T12:14:07;4.65;;;2.15;;
75916;SDS011;64595;50.148;14.334;2024-01-25T12:16:32;8.05;;;2.88;;
75916;SDS011;64595;50.148;14.334;2024-01-25T12:18:59;9.15;;;2.28;;
75916;SDS011;64595;50.148;14.334;2024-01-25T12:21:25;8.23;;;2.88;;
75916;SDS011;64595;50.148;14.334;2024-01-25T12:23:50;4.70;;;1.77;;
75916;SDS011;64595;50.148;14.334;2024-01-25T12:26:16;6.78;;;3.67;;
75916;SDS011;64595;50.148;14.334;2024-01-25T12:28:41;14.05;;;1.92;;
75916;SDS011;64595;50.148;14.334;2024-01-25T12:31:07;9.00;;;2.05;;
75916;SDS011;64595;50.148;14.334;2024-01-25T12:33:33;8.60;;;2.28;;
75916;SDS011;64595;50.148;14.334;2024-01-25T12:36:00;13.07;;;3.08;;
75916;SDS011;64595;50.148;14.334;2024-01-25T12:38:26;12.35;;;2.40;;
75916;SDS011;64595;50.148;14.334;2024-01-25T12:40:53;5.53;;;1.80;;
75916;SDS011;64595;50.148;14.334;2024-01-25T12:43:18;5.30;;;1.77;;
75916;SDS011;64595;50.148;14.334;2024-01-25T12:45:44;9.48;;;1.73;;
75916;SDS011;64595;50.148;14.334;2024-01-25T12:48:10;4.90;;;2.00;;
75916;SDS011;64595;50.148;14.334;2024-01-25T12:50:36;6.40;;;2.30;;
75916;SDS011;64595;50.148;14.334;2024-01-25T12:53:03;9.75;;;2.10;;
75916;SDS011;64595;50.148;14.334;2024-01-25T12:55:29;7.10;;;2.13;;
75916;SDS011;64595;50.148;14.334;2024-01-25T12:57:55;5.28;;;1.70;;
75916;SDS011;64595;50.148;14.334;2024-01-25T13:00:21;5.57;;;1.90;;
75916;SDS011;64595;50.148;14.334;2024-01-25T13:05:19;19.13;;;2.90;;
75916;SDS011;64595;50.148;14.334;2024-01-25T13:07:45;6.60;;;2.08;;
75916;SDS011;64595;50.148;14.334;2024-01-25T13:10:13;5.65;;;1.80;;
75916;SDS011;64595;50.148;14.334;2024-01-25T13:12:38;9.13;;;2.05;;
75916;SDS011;64595;50.148;14.334;2024-01-25T13:15:11;5.50;;;2.00;;
75916;SDS011;64595;50.148;14.334;2024-01-25T13:17:37;5.78;;;1.90;;
75916;SDS011;64595;50.148;14.334;2024-01-25T13:20:02;6.85;;;2.53;;
75916;SDS011;64595;50.148;14.334;2024-01-25T13:22:28;10.63;;;2.40;;
75916;SDS011;64595;50.148;14.334;2024-01-25T13:24:54;7.28;;;2.33;;
75916;SDS011;64595;50.148;14.334;2024-01-25T13:27:21;4.65;;;2.10;;
75916;SDS011;64595;50.148;14.334;2024-01-25T13:29:46;7.50;;;2.53;;
75916;SDS011;64595;50.148;14.334;2024-01-25T13:32:12;5.25;;;2.05;;
75916;SDS011;64595;50.148;14.334;2024-01-25T13:34:37;10.43;;;2.47;;
75916;SDS011;64595;50.148;14.334;2024-01-25T13:37:03;7.22;;;2.30;;
75916;SDS011;64595;50.148;14.334;2024-01-25T13:39:28;8.80;;;3.05;;
75916;SDS011;64595;50.148;14.334;2024-01-25T13:41:55;13.95;;;4.18;;
75916;SDS011;64595;50.148;14.334;2024-01-25T13:44:22;28.70;;;8.65;;
75916;SDS011;64595;50.148;14.334;2024-01-25T13:46:47;26.92;;;9.80;;
75916;SDS011;64595;50.148;14.334;2024-01-25T13:49:13;12.35;;;4.10;;
75916;SDS011;64595;50.148;14.334;2024-01-25T13:51:38;8.88;;;3.20;;
75916;SDS011;64595;50.148;14.334;2024-01-25T13:54:04;14.35;;;5.70;;
75916;SDS011;64595;50.148;14.334;2024-01-25T13:56:29;12.55;;;4.53;;
75916;SDS011;64595;50.148;14.334;2024-01-25T13:58:55;18.35;;;6.55;;
75916;SDS011;64595;50.148;14.334;2024-01-25T14:01:21;15.75;;;5.28;;
75916;SDS011;64595;50.148;14.334;2024-01-25T14:03:47;13.75;;;5.05;;
75916;SDS011;64595;50.148;14.334;2024-01-25T14:06:12;11.90;;;5.25;;
75916;SDS011;64595;50.148;14.334;2024-01-25T14:08:38;11.05;;;4.43;;
75916;SDS011;64595;50.148;14.334;2024-01-25T14:11:04;16.88;;;8.32;;
75916;SDS011;64595;50.148;14.334;2024-01-25T14:13:29;12.65;;;5.90;;
75916;SDS011;64595;50.148;14.334;2024-01-25T14:15:55;9.15;;;3.95;;
75916;SDS011;64595;50.148;14.334;2024-01-25T14:18:22;9.80;;;3.65;;
75916;SDS011;64595;50.148;14.334;2024-01-25T14:20:47;9.73;;;3.97;;
75916;SDS011;64595;50.148;14.334;2024-01-25T14:23:13;10.65;;;4.40;;
75916;SDS011;64595;50.148;14.334;2024-01-25T14:25:39;40.53;;;5.30;;
75916;SDS011;64595;50.148;14.334;2024-01-25T14:28:04;7.43;;;2.42;;